createdAt,value
2018-05-31T00:00:42.684Z,63.54
2018-05-31T00:01:42.683Z,62.38
2018-05-31T00:02:42.668Z,61.03
2018-05-31T00:03:42.382Z,61.03
2018-05-31T00:04:42.381Z,61.03
2018-05-31T00:05:42.371Z,61.9
2018-05-31T00:06:42.363Z,62.09
2018-05-31T00:07:42.631Z,61.99
2018-05-31T00:08:42.620Z,61.61
2018-05-31T00:09:42.337Z,61.22
2018-05-31T00:10:42.333Z,60.74
2018-05-31T00:11:42.590Z,60.83
2018-05-31T00:12:42.605Z,60.55
2018-05-31T00:13:42.304Z,60.35
2018-05-31T00:14:42.576Z,60.52
2018-05-31T00:15:42.888Z,59.87
2018-05-31T00:16:42.554Z,59.97
2018-05-31T00:17:42.274Z,59.55
2018-05-31T00:18:42.541Z,59.97
2018-05-31T00:19:42.253Z,59.17
2018-05-31T00:20:42.516Z,59.07
2018-05-31T00:21:42.505Z,58.78
2018-05-31T00:22:42.499Z,58.3
2018-05-31T00:23:42.492Z,58.01
2018-05-31T00:24:42.754Z,57.92
2018-05-31T00:25:42.204Z,56.57
2018-05-31T00:26:42.461Z,55.12
2018-05-31T00:27:42.470Z,55.22
2018-05-31T00:28:42.451Z,55.22
2018-05-31T00:29:42.438Z,53.96
2018-05-31T00:30:42.471Z,53.39
2018-05-31T00:31:42.429Z,53
2018-05-31T00:32:42.434Z,51.56
2018-05-31T00:33:42.135Z,50.98
2018-05-31T00:34:42.122Z,49.15
2018-05-31T00:35:42.115Z,50.01
2018-05-31T00:36:42.583Z,50.3
2018-05-31T00:37:42.375Z,50.21
2018-05-31T00:38:42.371Z,50.11
2018-05-31T00:39:42.079Z,49.73
2018-05-31T00:40:42.339Z,50.11
2018-05-31T00:41:42.332Z,50.11
2018-05-31T00:42:42.325Z,49.24
2018-05-31T00:43:42.931Z,48.76
2018-05-31T00:44:42.042Z,48.66
2018-05-31T00:45:42.303Z,49.34
2018-05-31T00:46:42.296Z,48.66
2018-05-31T00:47:42.013Z,48.18
2018-05-31T00:48:42.272Z,48.08
2018-05-31T00:49:41.996Z,48.95
2018-05-31T00:50:42.311Z,49.24
2018-05-31T00:51:42.247Z,49.53
2018-05-31T00:52:41.964Z,49.34
2018-05-31T00:53:42.008Z,49.34
2018-05-31T00:54:42.233Z,49.43
2018-05-31T00:55:41.942Z,50.01
2018-05-31T00:56:42.196Z,50.01
2018-05-31T00:57:41.923Z,49.91
2018-05-31T00:58:42.185Z,49.73
2018-05-31T00:59:42.180Z,49.32
2018-05-31T01:00:42.166Z,49.22
2018-05-31T01:01:41.889Z,48.06
2018-05-31T01:02:42.220Z,47.67
2018-05-31T01:03:42.151Z,47.49
2018-05-31T01:04:42.139Z,47.67
2018-05-31T01:05:41.854Z,47.67
2018-05-31T01:06:41.849Z,47.87
2018-05-31T01:07:41.837Z,48.16
2018-05-31T01:08:42.099Z,47.97
2018-05-31T01:09:42.096Z,48.16
2018-05-31T01:10:42.581Z,47.97
2018-05-31T01:11:42.069Z,47.67
2018-05-31T01:12:41.790Z,47.67
2018-05-31T01:13:42.056Z,48.16
2018-05-31T01:14:41.775Z,47.58
2018-05-31T01:15:41.762Z,47.67
2018-05-31T01:16:41.800Z,47.97
2018-05-31T01:17:42.015Z,47.67
2018-05-31T01:18:41.735Z,47.87
2018-05-31T01:19:41.725Z,47.49
2018-05-31T01:20:41.990Z,46.91
2018-05-31T01:21:41.993Z,47.08
2018-05-31T01:22:41.980Z,46.91
2018-05-31T01:23:41.963Z,47.1
2018-05-31T01:24:41.954Z,46.88
2018-05-31T01:25:41.674Z,46.71
2018-05-31T01:26:41.664Z,46.78
2018-05-31T01:27:41.981Z,46.4
2018-05-31T01:28:41.914Z,46.21
2018-05-31T01:29:42.497Z,46.5
2018-05-31T01:30:41.630Z,46.4
2018-05-31T01:31:41.622Z,46.78
2018-05-31T01:32:41.882Z,46.78
2018-05-31T01:33:41.603Z,46.88
2018-05-31T01:34:41.869Z,46.5
2018-05-31T01:35:41.583Z,46.31
2018-05-31T01:36:41.847Z,46.59
2018-05-31T01:37:41.564Z,47.08
2018-05-31T01:38:42.073Z,46.31
2018-05-31T01:39:41.818Z,46.31
2018-05-31T01:40:41.831Z,46.11
2018-05-31T01:41:41.529Z,46.21
2018-05-31T01:42:41.788Z,45.7
2018-05-31T01:43:41.513Z,45.15
2018-05-31T01:44:41.497Z,43.97
2018-05-31T01:45:41.495Z,43.51
2018-05-31T01:46:41.763Z,42.14
2018-05-31T01:47:42.367Z,41.56
2018-05-31T01:48:41.736Z,40.99
2018-05-31T01:49:41.452Z,41.18
2018-05-31T01:50:41.723Z,40.72
2018-05-31T01:51:41.712Z,40.24
2018-05-31T01:52:41.429Z,40.12
2018-05-31T01:53:41.413Z,39.66
2018-05-31T01:54:41.408Z,39.26
2018-05-31T01:55:41.663Z,39.37
2018-05-31T01:56:42.091Z,39.26
2018-05-31T01:57:41.648Z,39.45
2018-05-31T01:58:41.659Z,39.45
2018-05-31T01:59:41.634Z,39.26
2018-05-31T02:00:41.630Z,39.36
2018-05-31T02:01:41.341Z,40.05
2018-05-31T02:02:41.332Z,40.14
2018-05-31T02:03:41.319Z,39.74
2018-05-31T02:04:41.314Z,39.54
2018-05-31T02:05:42.017Z,39.28
2018-05-31T02:06:41.294Z,39.74
2018-05-31T02:07:41.565Z,39.45
2018-05-31T02:08:41.575Z,39.26
2018-05-31T02:09:41.266Z,39.36
2018-05-31T02:10:41.258Z,38.99
2018-05-31T02:11:41.247Z,39.06
2018-05-31T02:12:41.517Z,38.97
2018-05-31T02:13:41.509Z,38.01
2018-05-31T02:14:41.829Z,38.01
2018-05-31T02:15:41.491Z,37.52
2018-05-31T02:16:41.201Z,37.72
2018-05-31T02:17:41.199Z,38.01
2018-05-31T02:18:41.456Z,37.91
2018-05-31T02:19:41.174Z,36.77
2018-05-31T02:20:41.161Z,36.76
2018-05-31T02:21:41.152Z,36.76
2018-05-31T02:22:41.144Z,36.56
2018-05-31T02:23:41.138Z,37.04
2018-05-31T02:24:41.397Z,36.95
2018-05-31T02:25:41.392Z,35.22
2018-05-31T02:26:41.108Z,34.92
2018-05-31T02:27:41.369Z,35.12
2018-05-31T02:28:41.091Z,34.74
2018-05-31T02:29:41.083Z,34.45
2018-05-31T02:30:41.370Z,34.35
2018-05-31T02:31:41.328Z,34.25
2018-05-31T02:32:41.734Z,33.67
2018-05-31T02:33:41.317Z,33.29
2018-05-31T02:34:41.323Z,32.71
2018-05-31T02:35:41.026Z,32.62
2018-05-31T02:36:41.504Z,32.9
2018-05-31T02:37:41.009Z,32.62
2018-05-31T02:38:41.269Z,32.14
2018-05-31T02:39:41.266Z,31.37
2018-05-31T02:40:40.976Z,31.08
2018-05-31T02:41:40.967Z,30.79
2018-05-31T02:42:41.235Z,30.79
2018-05-31T02:43:41.233Z,31.08
2018-05-31T02:44:40.940Z,30.98
2018-05-31T02:45:41.217Z,31.08
2018-05-31T02:46:40.922Z,31.27
2018-05-31T02:47:41.198Z,31.18
2018-05-31T02:48:41.188Z,31.27
2018-05-31T02:49:40.896Z,31.56
2018-05-31T02:50:41.153Z,31.18
2018-05-31T02:51:41.159Z,30.5
2018-05-31T02:52:40.872Z,29.83
2018-05-31T02:53:40.908Z,30.4
2018-05-31T02:54:41.120Z,30.31
2018-05-31T02:55:41.122Z,30.11
2018-05-31T02:56:40.828Z,29.93
2018-05-31T02:57:41.088Z,30.21
2018-05-31T02:58:40.807Z,30.6
2018-05-31T02:59:41.075Z,30.79
2018-05-31T03:00:40.782Z,30.88
2018-05-31T03:01:40.780Z,31.37
2018-05-31T03:02:41.046Z,31.18
2018-05-31T03:03:41.028Z,31.65
2018-05-31T03:04:40.750Z,31.95
2018-05-31T03:05:41.014Z,32.14
2018-05-31T03:06:40.998Z,32.33
2018-05-31T03:07:41.151Z,32.14
2018-05-31T03:08:40.980Z,32.14
2018-05-31T03:09:40.987Z,32.33
2018-05-31T03:10:40.961Z,32.33
2018-05-31T03:11:40.960Z,32.33
2018-05-31T03:12:40.955Z,32.23
2018-05-31T03:13:40.947Z,32.33
2018-05-31T03:14:40.937Z,31.85
2018-05-31T03:15:40.919Z,31.95
2018-05-31T03:16:40.912Z,31.56
2018-05-31T03:17:40.625Z,31.65
2018-05-31T03:18:41.390Z,31.18
2018-05-31T03:19:40.889Z,31.08
2018-05-31T03:20:40.876Z,30.6
2018-05-31T03:21:40.920Z,30.69
2018-05-31T03:22:40.577Z,30.21
2018-05-31T03:23:40.842Z,29.54
2018-05-31T03:24:40.560Z,29.35
2018-05-31T03:25:40.553Z,28.96
2018-05-31T03:26:40.538Z,29.06
2018-05-31T03:27:40.802Z,28.86
2018-05-31T03:28:40.516Z,28.67
2018-05-31T03:29:40.508Z,28.38
2018-05-31T03:30:40.774Z,28.38
2018-05-31T03:31:40.817Z,28.67
2018-05-31T03:32:40.488Z,28.67
2018-05-31T03:33:40.809Z,28.67
2018-05-31T03:34:40.732Z,28.77
2018-05-31T03:35:40.453Z,29.15
2018-05-31T03:36:40.447Z,28.86
2018-05-31T03:37:40.709Z,28.67
2018-05-31T03:38:40.701Z,29.06
2018-05-31T03:39:40.686Z,29.15
2018-05-31T03:40:40.689Z,28.86
2018-05-31T03:41:40.675Z,28.58
2018-05-31T03:42:40.658Z,28.77
2018-05-31T03:43:40.380Z,28.38
2018-05-31T03:44:40.724Z,28.19
2018-05-31T03:45:40.632Z,28.19
2018-05-31T03:46:40.617Z,28.58
2018-05-31T03:47:40.338Z,28.48
2018-05-31T03:48:40.330Z,28.48
2018-05-31T03:49:40.603Z,28.58
2018-05-31T03:50:40.318Z,28.67
2018-05-31T03:51:40.574Z,28.58
2018-05-31T03:52:40.296Z,28.48
2018-05-31T03:53:40.741Z,28.77
2018-05-31T03:54:40.549Z,28.67
2018-05-31T03:55:40.531Z,28.67
2018-05-31T03:56:40.522Z,28.77
2018-05-31T03:57:40.239Z,29.06
2018-05-31T03:58:40.520Z,29.35
2018-05-31T03:59:40.224Z,29.25
2018-05-31T04:00:40.492Z,28.96
2018-05-31T04:01:40.204Z,29.06
2018-05-31T04:02:40.921Z,28.96
2018-05-31T04:03:40.479Z,29.44
2018-05-31T04:04:40.452Z,29.25
2018-05-31T04:05:40.443Z,29.15
2018-05-31T04:06:40.157Z,29.15
2018-05-31T04:07:40.416Z,29.25
2018-05-31T04:08:40.142Z,28.96
2018-05-31T04:09:40.410Z,29.06
2018-05-31T04:10:40.392Z,28.67
2018-05-31T04:11:40.535Z,28.19
2018-05-31T04:12:40.371Z,28.19
2018-05-31T04:13:40.094Z,28.58
2018-05-31T04:14:40.389Z,28.86
2018-05-31T04:15:40.350Z,28.67
2018-05-31T04:16:40.337Z,28.77
2018-05-31T04:17:40.059Z,28.58
2018-05-31T04:18:40.328Z,28.48
2018-05-31T04:19:40.038Z,28
2018-05-31T04:20:40.031Z,27.71
2018-05-31T04:21:40.304Z,28.09
2018-05-31T04:22:40.299Z,27.92
2018-05-31T04:23:40.275Z,28.02
2018-05-31T04:24:40.268Z,27.81
2018-05-31T04:25:39.980Z,27.82
2018-05-31T04:26:40.255Z,27.72
2018-05-31T04:27:39.969Z,28.2
2018-05-31T04:28:39.955Z,27.92
2018-05-31T04:29:40.694Z,28.3
2018-05-31T04:30:40.212Z,28.78
2018-05-31T04:31:39.924Z,28.59
2018-05-31T04:32:40.193Z,28.59
2018-05-31T04:33:40.277Z,27.92
2018-05-31T04:34:40.170Z,28.3
2018-05-31T04:35:40.176Z,28.49
2018-05-31T04:36:40.086Z,28.97
2018-05-31T04:37:39.872Z,28.59
2018-05-31T04:38:39.861Z,28.69
2018-05-31T04:39:40.131Z,28.69
2018-05-31T04:40:39.851Z,28.97
2018-05-31T04:41:40.106Z,29.27
2018-05-31T04:42:39.826Z,29.36
2018-05-31T04:43:40.088Z,29.38
2018-05-31T04:44:40.090Z,28.99
2018-05-31T04:45:40.068Z,28.99
2018-05-31T04:46:39.795Z,29.47
2018-05-31T04:47:40.529Z,29.28
2018-05-31T04:48:39.768Z,29.08
2018-05-31T04:49:40.041Z,29.76
2018-05-31T04:50:40.028Z,29.66
2018-05-31T04:51:40.022Z,30.05
2018-05-31T04:52:39.738Z,30.05
2018-05-31T04:53:39.733Z,30.05
2018-05-31T04:54:39.995Z,29.86
2018-05-31T04:55:39.710Z,30.05
2018-05-31T04:56:40.406Z,30.34
2018-05-31T04:57:39.689Z,30.73
2018-05-31T04:58:39.951Z,30.74
2018-05-31T04:59:39.949Z,30.74
2018-05-31T05:00:39.996Z,31.12
2018-05-31T05:01:39.932Z,31.22
2018-05-31T05:02:39.652Z,31.7
2018-05-31T05:03:39.913Z,32.18
2018-05-31T05:04:39.906Z,32.95
2018-05-31T05:05:40.379Z,32.95
2018-05-31T05:06:39.890Z,33.34
2018-05-31T05:07:39.613Z,33.25
2018-05-31T05:08:39.599Z,33.25
2018-05-31T05:09:39.912Z,33.34
2018-05-31T05:10:39.581Z,33.63
2018-05-31T05:11:39.841Z,33.92
2018-05-31T05:12:39.838Z,34.01
2018-05-31T05:13:39.822Z,34.11
2018-05-31T05:14:40.359Z,34.11
2018-05-31T05:15:39.800Z,34.11
2018-05-31T05:16:39.821Z,34.11
2018-05-31T05:17:39.800Z,34.4
2018-05-31T05:18:39.789Z,34.21
2018-05-31T05:19:39.786Z,34.4
2018-05-31T05:20:39.489Z,34.21
2018-05-31T05:21:39.766Z,34.4
2018-05-31T05:22:39.761Z,34.59
2018-05-31T05:23:40.062Z,33.92
2018-05-31T05:24:39.730Z,35.08
2018-05-31T05:25:39.720Z,35.19
2018-05-31T05:26:39.718Z,35.85
2018-05-31T05:27:39.705Z,36.73
2018-05-31T05:28:39.422Z,36.93
2018-05-31T05:29:39.413Z,37.21
2018-05-31T05:30:39.403Z,37.89
2018-05-31T05:31:39.394Z,37.79
2018-05-31T05:32:39.387Z,37.7
2018-05-31T05:33:39.647Z,37.21
2018-05-31T05:34:39.644Z,37.5
2018-05-31T05:35:39.637Z,37.79
2018-05-31T05:36:39.621Z,37.89
2018-05-31T05:37:39.620Z,38.08
2018-05-31T05:38:39.661Z,38.56
2018-05-31T05:39:39.329Z,38.76
2018-05-31T05:40:39.318Z,39.74
2018-05-31T05:41:39.315Z,40.69
2018-05-31T05:42:39.583Z,41.77
2018-05-31T05:43:39.668Z,42.15
2018-05-31T05:44:39.567Z,43.7
2018-05-31T05:45:39.552Z,42.73
2018-05-31T05:46:39.272Z,42.44
2018-05-31T05:47:39.261Z,42.54
2018-05-31T05:48:39.529Z,43.89
2018-05-31T05:49:39.253Z,44.27
2018-05-31T05:50:39.239Z,44.76
2018-05-31T05:51:39.513Z,44.95
2018-05-31T05:52:39.223Z,44.85
2018-05-31T05:53:39.481Z,45.62
2018-05-31T05:54:39.485Z,45.43
2018-05-31T05:55:39.487Z,46.01
2018-05-31T05:56:39.478Z,47.87
2018-05-31T05:57:39.183Z,47.09
2018-05-31T05:58:39.444Z,46.9
2018-05-31T05:59:40.003Z,47.19
2018-05-31T06:00:39.429Z,47.96
2018-05-31T06:01:39.422Z,49.51
2018-05-31T06:02:39.420Z,52.21
2018-05-31T06:03:39.137Z,54.05
2018-05-31T06:04:39.399Z,52.98
2018-05-31T06:05:39.442Z,52.98
2018-05-31T06:06:39.377Z,53.85
2018-05-31T06:07:39.105Z,53.37
2018-05-31T06:08:39.093Z,52.89
2018-05-31T06:09:39.359Z,54.46
2018-05-31T06:10:39.079Z,54.65
2018-05-31T06:11:39.359Z,55.52
2018-05-31T06:12:39.066Z,55.71
2018-05-31T06:13:39.326Z,57.74
2018-05-31T06:14:39.318Z,57.06
2018-05-31T06:15:39.318Z,56.87
2018-05-31T06:16:39.642Z,56.58
2018-05-31T06:17:39.301Z,59.77
2018-05-31T06:18:39.016Z,61.15
2018-05-31T06:19:39.013Z,61.25
2018-05-31T06:20:39.273Z,61.34
2018-05-31T06:21:39.260Z,61.25
2018-05-31T06:22:39.261Z,61.83
2018-05-31T06:23:38.981Z,62.12
2018-05-31T06:24:39.365Z,61.25
2018-05-31T06:25:39.580Z,61.83
2018-05-31T06:26:39.237Z,60.47
2018-05-31T06:27:39.241Z,62.31
2018-05-31T06:28:39.386Z,63.08
2018-05-31T06:29:38.940Z,67.85
2018-05-31T06:30:39.206Z,66.36
2018-05-31T06:31:39.190Z,67.08
2018-05-31T06:32:38.919Z,68.43
2018-05-31T06:33:38.966Z,67.85
2018-05-31T06:34:39.163Z,68.82
2018-05-31T06:35:38.898Z,68.14
2018-05-31T06:36:39.354Z,66.5
2018-05-31T06:37:38.881Z,69.98
2018-05-31T06:38:39.187Z,68.33
2018-05-31T06:39:39.135Z,67.36
2018-05-31T06:40:39.124Z,71.33
2018-05-31T06:41:39.118Z,70.07
2018-05-31T06:42:38.893Z,72.52
2018-05-31T06:43:39.107Z,75.52
2018-05-31T06:44:38.831Z,76.68
2018-05-31T06:45:39.090Z,74.65
2018-05-31T06:46:39.083Z,75.52
2018-05-31T06:47:39.074Z,74.85
2018-05-31T06:48:39.075Z,76.1
2018-05-31T06:49:39.069Z,76.01
2018-05-31T06:50:39.062Z,77.75
2018-05-31T06:51:39.063Z,77.55
2018-05-31T06:52:39.043Z,77.45
2018-05-31T06:53:38.776Z,76.43
2018-05-31T06:54:39.032Z,75.56
2018-05-31T06:55:38.757Z,75.17
2018-05-31T06:56:39.019Z,76.14
2018-05-31T06:57:39.009Z,77.69
2018-05-31T06:58:39.007Z,76.33
2018-05-31T06:59:39.202Z,77.11
2018-05-31T07:00:39.008Z,77.98
2018-05-31T07:01:38.721Z,76.43
2018-05-31T07:02:38.979Z,77.69
2018-05-31T07:03:39.114Z,77.88
2018-05-31T07:04:38.977Z,80.2
2018-05-31T07:05:39.174Z,78.08
2018-05-31T07:06:38.955Z,78.31
2018-05-31T07:07:38.948Z,79.04
2018-05-31T07:08:38.997Z,78.66
2018-05-31T07:09:38.673Z,77.88
2018-05-31T07:10:38.663Z,79.85
2018-05-31T07:11:38.654Z,78.41
2018-05-31T07:12:38.918Z,79.08
2018-05-31T07:13:38.648Z,82.28
2018-05-31T07:14:38.643Z,84.21
2018-05-31T07:15:38.636Z,83.05
2018-05-31T07:16:38.899Z,84.31
2018-05-31T07:17:38.886Z,83.73
2018-05-31T07:18:38.881Z,85.18
2018-05-31T07:19:38.873Z,86.63
2018-05-31T07:20:38.869Z,87.02
2018-05-31T07:21:38.859Z,87.6
2018-05-31T07:22:38.857Z,85.86
2018-05-31T07:23:38.852Z,85.41
2018-05-31T07:24:38.866Z,89.83
2018-05-31T07:25:38.836Z,90.16
2018-05-31T07:26:38.832Z,89.29
2018-05-31T07:27:38.831Z,88.81
2018-05-31T07:28:38.826Z,91.42
2018-05-31T07:29:38.551Z,97.52
2018-05-31T07:30:38.814Z,99.99
2018-05-31T07:31:38.807Z,99.99
2018-05-31T07:32:38.806Z,99.99
2018-05-31T07:33:38.534Z,99.99
2018-05-31T07:34:38.802Z,99.99
2018-05-31T07:35:38.791Z,99.99
2018-05-31T07:36:38.791Z,99.99
2018-05-31T07:37:38.519Z,93.99
2018-05-31T07:38:38.521Z,91.89
2018-05-31T07:39:38.782Z,91.84
2018-05-31T07:40:38.772Z,88.37
2018-05-31T07:41:38.773Z,86.74
2018-05-31T07:42:38.771Z,85.91
2018-05-31T07:43:38.773Z,82.87
2018-05-31T07:44:38.771Z,82.78
2018-05-31T07:45:38.768Z,82.73
2018-05-31T07:46:38.492Z,85.63
2018-05-31T07:47:38.769Z,84.84
2018-05-31T07:48:38.489Z,87.05
2018-05-31T07:49:38.487Z,91.26
2018-05-31T07:50:38.485Z,90.92
2018-05-31T07:51:38.793Z,87.89
2018-05-31T07:52:38.534Z,90.04
2018-05-31T07:53:38.501Z,91.94
2018-05-31T07:54:38.745Z,96.83
2018-05-31T07:55:38.743Z,99.99
2018-05-31T07:56:38.473Z,99.99
2018-05-31T07:57:38.734Z,95.81
2018-05-31T07:58:38.738Z,95.27
2018-05-31T07:59:38.480Z,94.92
2018-05-31T08:00:38.756Z,89.46
2018-05-31T08:01:38.729Z,89.75
2018-05-31T08:02:38.462Z,86.52
2018-05-31T08:03:38.727Z,85
2018-05-31T08:04:38.727Z,88.48
2018-05-31T08:05:38.785Z,87.9
2018-05-31T08:06:38.452Z,88.19
2018-05-31T08:07:38.448Z,88.29
2018-05-31T08:08:38.449Z,92.34
2018-05-31T08:09:38.444Z,94.64
2018-05-31T08:10:38.452Z,95.66
2018-05-31T08:11:38.442Z,99.99
2018-05-31T08:12:38.702Z,99.99
2018-05-31T08:13:38.752Z,99.99
2018-05-31T08:14:38.699Z,99.99
2018-05-31T08:15:38.701Z,99.99
2018-05-31T08:16:38.704Z,99.99
2018-05-31T08:17:38.690Z,99.99
2018-05-31T08:18:38.694Z,99.99
2018-05-31T08:19:38.423Z,99.99
2018-05-31T08:20:38.433Z,99.02
2018-05-31T08:21:38.685Z,92.68
2018-05-31T08:22:38.420Z,87.68
2018-05-31T08:23:38.412Z,85.86
2018-05-31T08:24:38.424Z,81.05
2018-05-31T08:25:38.683Z,82.42
2018-05-31T08:26:38.412Z,82.48
2018-05-31T08:27:38.678Z,81.76
2018-05-31T08:28:38.412Z,83.58
2018-05-31T08:29:38.412Z,87.34
2018-05-31T08:30:38.674Z,84.61
2018-05-31T08:31:38.947Z,83.98
2018-05-31T08:32:38.675Z,87.26
2018-05-31T08:33:38.415Z,90.83
2018-05-31T08:34:38.670Z,90.3
2018-05-31T08:35:38.669Z,94.68
2018-05-31T08:36:38.876Z,96.1
2018-05-31T08:37:38.402Z,99.8
2018-05-31T08:38:38.673Z,97.41
2018-05-31T08:39:38.399Z,99.99
2018-05-31T08:40:38.401Z,99.99
2018-05-31T08:41:38.662Z,99.99
2018-05-31T08:42:38.394Z,94.34
2018-05-31T08:43:38.657Z,94.59
2018-05-31T08:44:38.654Z,97.51
2018-05-31T08:45:38.392Z,99.07
2018-05-31T08:46:38.648Z,98.39
2018-05-31T08:47:38.651Z,97.95
2018-05-31T08:48:38.652Z,97.75
2018-05-31T08:49:38.649Z,97.27
2018-05-31T08:50:38.649Z,97.07
2018-05-31T08:51:38.384Z,94.44
2018-05-31T08:52:38.381Z,98.39
2018-05-31T08:53:38.649Z,99.99
2018-05-31T08:54:38.642Z,99.99
2018-05-31T08:55:38.641Z,96.34
2018-05-31T08:56:38.367Z,99.99
2018-05-31T08:57:38.628Z,99.22
2018-05-31T08:58:38.628Z,99.99
2018-05-31T08:59:38.630Z,99.99
2018-05-31T09:00:38.363Z,99.99
2018-05-31T09:01:38.631Z,99.99
2018-05-31T09:02:38.617Z,99.99
2018-05-31T09:03:38.622Z,99.99
2018-05-31T09:04:38.621Z,99.99
2018-05-31T09:05:38.615Z,99.99
2018-05-31T09:06:38.620Z,99.99
2018-05-31T09:07:38.621Z,99.99
2018-05-31T09:08:38.609Z,99.99
2018-05-31T09:09:38.659Z,99.99
2018-05-31T09:10:38.607Z,99.27
2018-05-31T09:11:38.599Z,95.86
2018-05-31T09:12:38.332Z,97.31
2018-05-31T09:13:38.593Z,98.68
2018-05-31T09:14:38.330Z,99.76
2018-05-31T09:15:38.592Z,96.49
2018-05-31T09:16:38.594Z,95.81
2018-05-31T09:17:38.594Z,91.75
2018-05-31T09:18:38.588Z,92.44
2018-05-31T09:19:38.592Z,91.61
2018-05-31T09:20:38.589Z,93.07
2018-05-31T09:21:38.319Z,90.34
2018-05-31T09:22:38.582Z,91.51
2018-05-31T09:23:38.319Z,90.63
2018-05-31T09:24:38.585Z,89.71
2018-05-31T09:25:38.582Z,92.73
2018-05-31T09:26:38.312Z,97.41
2018-05-31T09:27:38.574Z,95.03
2018-05-31T09:28:38.344Z,94.83
2018-05-31T09:29:38.365Z,96.59
2018-05-31T09:30:38.575Z,96.44
2018-05-31T09:31:38.314Z,95.27
2018-05-31T09:32:38.309Z,92.93
2018-05-31T09:33:38.571Z,94.78
2018-05-31T09:34:38.571Z,94
2018-05-31T09:35:38.573Z,91.37
2018-05-31T09:36:38.573Z,94.68
2018-05-31T09:37:38.301Z,96.83
2018-05-31T09:38:38.570Z,96.24
2018-05-31T09:39:38.301Z,93.75
2018-05-31T09:40:38.564Z,94.73
2018-05-31T09:41:38.571Z,89.17
2018-05-31T09:42:38.563Z,92.34
2018-05-31T09:43:38.299Z,90.3
2018-05-31T09:44:38.561Z,94.68
2018-05-31T09:45:38.293Z,99.37
2018-05-31T09:46:38.330Z,94.2
2018-05-31T09:47:38.556Z,94
2018-05-31T09:48:38.556Z,96.29
2018-05-31T09:49:38.553Z,99.9
2018-05-31T09:50:38.564Z,91.71
2018-05-31T09:51:38.548Z,88.19
2018-05-31T09:52:38.549Z,92
2018-05-31T09:53:38.546Z,94.09
2018-05-31T09:54:38.281Z,88.62
2018-05-31T09:55:38.544Z,89.89
2018-05-31T09:56:38.276Z,87.26
2018-05-31T09:57:38.543Z,91.85
2018-05-31T09:58:38.554Z,87.84
2018-05-31T09:59:38.544Z,87.36
2018-05-31T10:00:38.541Z,88.58
2018-05-31T10:01:38.626Z,90.73
2018-05-31T10:02:38.269Z,92.49
2018-05-31T10:03:38.288Z,90.63
2018-05-31T10:04:38.263Z,93.56
2018-05-31T10:05:38.262Z,92.63
2018-05-31T10:06:38.265Z,94.04
2018-05-31T10:07:38.519Z,88.58
2018-05-31T10:08:38.283Z,91.31
2018-05-31T10:09:38.526Z,94
2018-05-31T10:10:38.526Z,91.41
2018-05-31T10:11:38.520Z,92.39
2018-05-31T10:12:38.526Z,90.34
2018-05-31T10:13:38.518Z,88.78
2018-05-31T10:14:38.516Z,89.79
2018-05-31T10:15:38.515Z,88.43
2018-05-31T10:16:38.515Z,90.58
2018-05-31T10:17:38.245Z,89.99
2018-05-31T10:18:38.516Z,88.18
2018-05-31T10:19:38.249Z,87.89
2018-05-31T10:20:38.245Z,85
2018-05-31T10:21:38.514Z,85.14
2018-05-31T10:22:38.530Z,85.63
2018-05-31T10:23:38.253Z,84.45
2018-05-31T10:24:38.528Z,80.04
2018-05-31T10:25:38.515Z,80.57
2018-05-31T10:26:38.287Z,82.07
2018-05-31T10:27:38.525Z,81.04
2018-05-31T10:28:38.523Z,79.7
2018-05-31T10:29:38.536Z,73.4
2018-05-31T10:30:38.537Z,72.55
2018-05-31T10:31:38.535Z,74.91
2018-05-31T10:32:38.279Z,73.38
2018-05-31T10:33:38.536Z,70.46
2018-05-31T10:34:38.552Z,69.22
2018-05-31T10:35:38.551Z,68.96
2018-05-31T10:36:38.961Z,68.5
2018-05-31T10:37:38.306Z,68.7
2018-05-31T10:38:38.302Z,66.93
2018-05-31T10:39:38.575Z,64.69
2018-05-31T10:40:38.573Z,68.53
2018-05-31T10:41:38.589Z,66.39
2018-05-31T10:42:38.327Z,63.93
2018-05-31T10:43:38.333Z,63.28
2018-05-31T10:44:38.598Z,66.82
2018-05-31T10:45:38.601Z,63.28
2018-05-31T10:46:38.799Z,62.71
2018-05-31T10:47:38.355Z,63.9
2018-05-31T10:48:38.365Z,65.41
2018-05-31T10:49:38.626Z,62.84
2018-05-31T10:50:38.635Z,63.73
2018-05-31T10:51:38.635Z,61.98
2018-05-31T10:52:38.389Z,62.74
2018-05-31T10:53:38.647Z,62.57
2018-05-31T10:54:38.394Z,61.03
2018-05-31T10:55:38.673Z,61.62
2018-05-31T10:56:38.667Z,62.57
2018-05-31T10:57:38.408Z,61.59
2018-05-31T10:58:38.418Z,62.18
2018-05-31T10:59:38.423Z,62.28
2018-05-31T11:00:38.429Z,62.87
2018-05-31T11:01:38.709Z,60.67
2018-05-31T11:02:38.721Z,65.28
2018-05-31T11:03:38.450Z,65.22
2018-05-31T11:04:38.720Z,66.56
2018-05-31T11:05:38.737Z,67.51
2018-05-31T11:06:38.735Z,68.95
2018-05-31T11:07:38.490Z,68.76
2018-05-31T11:08:38.774Z,69.18
2018-05-31T11:09:38.488Z,68.43
2018-05-31T11:10:38.498Z,67.38
2018-05-31T11:11:38.496Z,64.89
2018-05-31T11:12:38.505Z,66.56
2018-05-31T11:13:38.774Z,64.75
2018-05-31T11:14:38.776Z,64.88
2018-05-31T11:15:38.784Z,63.63
2018-05-31T11:16:38.787Z,62.18
2018-05-31T11:17:38.835Z,60.7
2018-05-31T11:18:38.543Z,61.03
2018-05-31T11:19:38.805Z,62.48
2018-05-31T11:20:38.570Z,61.66
2018-05-31T11:21:38.619Z,61.46
2018-05-31T11:22:38.832Z,61.19
2018-05-31T11:23:38.827Z,58.86
2018-05-31T11:24:38.573Z,60.83
2018-05-31T11:25:38.581Z,60.14
2018-05-31T11:26:38.856Z,61.22
2018-05-31T11:27:38.860Z,57.87
2018-05-31T11:28:38.872Z,60.73
2018-05-31T11:29:38.608Z,60.31
2018-05-31T11:30:38.612Z,62.28
2018-05-31T11:31:38.887Z,62.55
2018-05-31T11:32:38.624Z,60.57
2018-05-31T11:33:38.899Z,62.32
2018-05-31T11:34:38.968Z,62.46
2018-05-31T11:35:38.914Z,64.69
2018-05-31T11:36:38.922Z,64.92
2018-05-31T11:37:38.667Z,66.17
2018-05-31T11:38:38.930Z,67.15
2018-05-31T11:39:38.667Z,68.79
2018-05-31T11:40:38.676Z,68.2
2018-05-31T11:41:39.041Z,70.62
2018-05-31T11:42:38.951Z,70.3
2018-05-31T11:43:38.690Z,66
2018-05-31T11:44:38.960Z,65.52
2018-05-31T11:45:38.706Z,66.27
2018-05-31T11:46:38.983Z,66.46
2018-05-31T11:47:38.986Z,67.55
2018-05-31T11:48:38.976Z,66.53
2018-05-31T11:49:38.717Z,67.22
2018-05-31T11:50:38.724Z,69.74
2018-05-31T11:51:38.732Z,65.45
2018-05-31T11:52:38.729Z,62.3
2018-05-31T11:53:39.007Z,62.23
2018-05-31T11:54:38.747Z,65.22
2018-05-31T11:55:38.746Z,67.84
2018-05-31T11:56:38.752Z,65.58
2018-05-31T11:57:38.757Z,65.25
2018-05-31T11:58:38.758Z,65.22
2018-05-31T11:59:38.761Z,69.21
2018-05-31T12:00:39.133Z,68.69
2018-05-31T12:01:38.797Z,68.79
2018-05-31T12:02:38.772Z,70.13
2018-05-31T12:03:39.049Z,71.89
2018-05-31T12:04:39.046Z,71.95
2018-05-31T12:05:38.782Z,71.66
2018-05-31T12:06:38.797Z,70.75
2018-05-31T12:07:38.789Z,71.04
2018-05-31T12:08:39.058Z,72.57
2018-05-31T12:09:38.794Z,74.14
2018-05-31T12:10:39.056Z,75.18
2018-05-31T12:11:38.797Z,74.4
2018-05-31T12:12:38.798Z,76.16
2018-05-31T12:13:38.802Z,75.87
2018-05-31T12:14:38.799Z,73.81
2018-05-31T12:15:39.067Z,74.79
2018-05-31T12:16:38.808Z,75.28
2018-05-31T12:17:39.217Z,74.24
2018-05-31T12:18:39.074Z,74.59
2018-05-31T12:19:39.071Z,73.46
2018-05-31T12:20:39.090Z,73.46
2018-05-31T12:21:39.080Z,75.05
2018-05-31T12:22:39.072Z,72.9
2018-05-31T12:23:39.075Z,75.29
2018-05-31T12:24:38.811Z,74.64
2018-05-31T12:25:38.812Z,72.48
2018-05-31T12:26:39.087Z,72.22
2018-05-31T12:27:39.084Z,72.32
2018-05-31T12:28:39.089Z,70.16
2018-05-31T12:29:39.081Z,69.96
2018-05-31T12:30:39.091Z,70.32
2018-05-31T12:31:39.092Z,71.11
2018-05-31T12:32:39.089Z,67.58
2018-05-31T12:33:39.087Z,70.09
2018-05-31T12:34:38.829Z,72.05
2018-05-31T12:35:39.093Z,71.08
2018-05-31T12:36:38.833Z,74.41
2018-05-31T12:37:38.863Z,71.95
2018-05-31T12:38:38.834Z,69.96
2018-05-31T12:39:38.831Z,71.23
2018-05-31T12:40:39.106Z,74.14
2018-05-31T12:41:39.108Z,72.57
2018-05-31T12:42:38.837Z,72.67
2018-05-31T12:43:39.101Z,73.36
2018-05-31T12:44:38.839Z,76.1
2018-05-31T12:45:38.841Z,76.65
2018-05-31T12:46:39.104Z,73.42
2018-05-31T12:47:39.164Z,72.5
2018-05-31T12:48:38.846Z,75.04
2018-05-31T12:49:38.843Z,73.48
2018-05-31T12:50:38.842Z,72.27
2018-05-31T12:51:39.107Z,72.27
2018-05-31T12:52:38.845Z,73.15
2018-05-31T12:53:38.860Z,71.16
2018-05-31T12:54:39.110Z,71.88
2018-05-31T12:55:38.843Z,73.11